Cannon Ball, North Dakota
Current Conditions -  °F | °C
As of 3:35 PM on Wednesday 22 Oct 2014 (Local Time) from K7L2 Reporting Station
Few Clouds Few Clouds  
Wind Chill: 64°   Ceiling: Unl
Heat Index: 64°   Visibility: 10mi
Dew Point: 45°   Wind: 12mph
Humidity: 49%   Direction: 250°WSW
Pressure: 29.87"   Gusts: 17mph
Location:  46.4°N, 100.6°W
Report Text: K7L2 222135Z AUTO 25010G15KT 10SM FEW110 18/07 A2987 RMK AO2 PWINO PNO
Loading
Personal Weather Stations






























Interactive Weather Map
Tropical Storm Tracking
New forecast layout! Learn more

10-Day Weather Forecast

Advertisements
Track Severe Weather on mobile